createdAt,value
2023-04-20T00:02:21.798Z,67.92
2023-04-20T00:04:54.621Z,67.90
2023-04-20T00:07:27.486Z,67.73
2023-04-20T00:09:59.843Z,67.95
2023-04-20T00:12:32.264Z,67.82
2023-04-20T00:15:05.118Z,68.00
2023-04-20T00:17:38.532Z,67.84
2023-04-20T00:20:13.047Z,67.94
2023-04-20T00:22:45.430Z,67.91
2023-04-20T00:25:17.880Z,67.82
2023-04-20T00:27:50.226Z,67.98
2023-04-20T00:30:22.848Z,67.95
2023-04-20T00:32:55.285Z,67.92
2023-04-20T00:35:27.745Z,67.94
2023-04-20T00:38:00.079Z,67.89
2023-04-20T00:40:32.320Z,67.97
2023-04-20T00:43:14.219Z,68.02
2023-04-20T00:45:47.027Z,67.88
2023-04-20T00:48:19.911Z,67.93
2023-04-20T00:50:53.525Z,68.03
2023-04-20T00:53:26.015Z,68.05
2023-04-20T00:55:58.479Z,67.99
2023-04-20T00:58:31.035Z,68.06
2023-04-20T01:01:05.039Z,68.15
2023-04-20T01:03:38.125Z,68.08
2023-04-20T01:06:12.136Z,67.93
2023-04-20T01:08:50.781Z,68.07
2023-04-20T01:11:23.156Z,68.01
2023-04-20T01:13:55.561Z,67.87
2023-04-20T01:16:28.088Z,68.11
2023-04-20T01:19:00.631Z,68.14
2023-04-20T01:21:32.922Z,68.11
2023-04-20T01:24:05.671Z,68.14
2023-04-20T01:26:38.081Z,68.15
2023-04-20T01:29:11.527Z,68.14
2023-04-20T01:31:43.904Z,68.14
2023-04-20T01:34:17.776Z,68.10
2023-04-20T01:36:50.714Z,68.18
2023-04-20T01:39:23.282Z,68.19
2023-04-20T01:41:55.605Z,68.18
2023-04-20T01:44:30.168Z,68.15
2023-04-20T01:47:02.653Z,68.06
2023-04-20T01:49:35.506Z,68.23
2023-04-20T01:52:08.286Z,68.24
2023-04-20T01:54:41.208Z,68.13
2023-04-20T01:57:13.638Z,68.24
2023-04-20T01:59:47.169Z,68.33
2023-04-20T02:02:19.727Z,68.27
2023-04-20T02:04:53.464Z,68.10
2023-04-20T02:07:25.906Z,68.18
2023-04-20T02:09:58.256Z,68.37
2023-04-20T02:12:30.721Z,68.32
2023-04-20T02:15:04.401Z,68.19
2023-04-20T02:17:37.543Z,68.12
2023-04-20T02:20:13.656Z,68.16
2023-04-20T02:22:45.984Z,68.19
2023-04-20T02:25:18.285Z,68.30
2023-04-20T02:27:51.076Z,68.24
2023-04-20T02:30:23.802Z,68.15
2023-04-20T02:32:56.205Z,68.17
2023-04-20T02:35:28.785Z,68.28
2023-04-20T02:38:01.053Z,68.38
2023-04-20T02:40:33.390Z,68.23
2023-04-20T02:43:05.646Z,68.29
2023-04-20T02:45:39.243Z,68.15
2023-04-20T02:48:11.963Z,68.12
2023-04-20T02:50:45.905Z,68.27
2023-04-20T02:53:24.545Z,68.17
2023-04-20T02:56:05.240Z,68.26
2023-04-20T02:58:53.259Z,68.23
2023-04-20T03:01:44.351Z,68.33
2023-04-20T03:04:21.209Z,68.26
2023-04-20T03:07:01.640Z,68.19
2023-04-20T03:09:35.724Z,68.25
2023-04-20T03:12:20.067Z,68.30
2023-04-20T03:15:13.345Z,68.17
2023-04-20T03:18:06.436Z,68.36
2023-04-20T03:20:38.836Z,68.45
2023-04-20T03:23:11.459Z,68.34
2023-04-20T03:25:44.868Z,68.17
2023-04-20T03:28:28.295Z,68.16
2023-04-20T03:31:01.725Z,68.19
2023-04-20T03:33:34.558Z,68.44
2023-04-20T03:36:07.974Z,68.31
2023-04-20T03:38:42.232Z,68.14
2023-04-20T03:41:15.189Z,68.28
2023-04-20T03:43:47.609Z,68.19
2023-04-20T03:46:22.054Z,68.33
2023-04-20T03:48:55.481Z,68.39
2023-04-20T03:51:29.318Z,68.26
2023-04-20T03:54:03.532Z,68.30
2023-04-20T03:56:36.245Z,68.50
2023-04-20T03:59:08.922Z,68.31
2023-04-20T04:01:42.346Z,68.33
2023-04-20T04:04:14.900Z,68.26
2023-04-20T04:06:47.333Z,68.27
2023-04-20T04:09:19.732Z,68.41
2023-04-20T04:11:52.165Z,68.52
2023-04-20T04:14:24.742Z,68.41
2023-04-20T04:16:57.888Z,68.24
2023-04-20T04:19:30.700Z,68.41
2023-04-20T04:22:03.500Z,68.48
2023-04-20T04:24:39.180Z,68.45
2023-04-20T04:27:15.700Z,68.59
2023-04-20T04:29:56.792Z,68.55
2023-04-20T04:32:29.694Z,68.59
2023-04-20T04:35:02.320Z,68.56
2023-04-20T04:37:34.882Z,68.49
2023-04-20T04:40:10.112Z,68.52
2023-04-20T04:42:45.524Z,68.45
2023-04-20T04:45:18.539Z,68.65
2023-04-20T04:47:53.006Z,68.50
2023-04-20T04:50:25.470Z,68.54
2023-04-20T04:52:57.926Z,68.47
2023-04-20T04:55:30.169Z,68.64
2023-04-20T04:58:02.813Z,68.54
2023-04-20T05:00:35.113Z,68.60
2023-04-20T05:03:07.598Z,68.60
2023-04-20T05:05:40.142Z,68.56
2023-04-20T05:08:12.442Z,68.52
2023-04-20T05:10:45.083Z,68.63
2023-04-20T05:13:17.447Z,68.58
2023-04-20T05:15:49.815Z,68.55
2023-04-20T05:18:22.147Z,68.65
2023-04-20T05:20:54.456Z,68.70
2023-04-20T05:23:26.746Z,68.70
2023-04-20T05:25:59.295Z,68.74
2023-04-20T05:28:31.689Z,68.76
2023-04-20T05:31:04.112Z,68.75
2023-04-20T05:33:36.367Z,68.85
2023-04-20T05:36:11.316Z,68.72
2023-04-20T05:38:42.025Z,68.48
2023-04-20T05:41:14.401Z,68.60
2023-04-20T05:43:46.714Z,68.67
2023-04-20T05:46:19.079Z,68.75
2023-04-20T05:48:52.001Z,68.56
2023-04-20T05:51:26.033Z,68.61
2023-04-20T05:53:58.335Z,68.52
2023-04-20T05:56:30.791Z,68.49
2023-04-20T05:59:03.388Z,68.32
2023-04-20T06:01:35.787Z,68.38
2023-04-20T06:04:08.993Z,68.30
2023-04-20T06:06:41.790Z,68.27
2023-04-20T06:09:14.323Z,68.17
2023-04-20T06:11:46.605Z,68.12
2023-04-20T06:14:18.961Z,68.03
2023-04-20T06:16:51.297Z,67.95
2023-04-20T06:19:23.695Z,68.12
2023-04-20T06:21:56.031Z,67.99
2023-04-20T06:24:28.478Z,68.05
2023-04-20T06:27:01.712Z,67.89
2023-04-20T06:29:34.040Z,67.95
2023-04-20T06:32:06.844Z,67.98
2023-04-20T06:34:39.191Z,67.96
2023-04-20T06:37:11.841Z,67.83
2023-04-20T06:39:44.304Z,67.77
2023-04-20T06:42:16.624Z,67.77
2023-04-20T06:44:49.361Z,67.83
2023-04-20T06:47:22.314Z,67.76
2023-04-20T06:49:54.690Z,67.84
2023-04-20T06:52:27.325Z,67.85
2023-04-20T06:55:00.853Z,67.73
2023-04-20T06:57:33.285Z,67.76
2023-04-20T07:00:06.262Z,67.61
2023-04-20T07:02:47.010Z,67.56
2023-04-20T07:05:20.805Z,67.50
2023-04-20T07:07:53.054Z,67.57
2023-04-20T07:10:25.476Z,67.55
2023-04-20T07:12:57.861Z,67.46
2023-04-20T07:15:30.187Z,67.40
2023-04-20T07:18:02.555Z,67.41
2023-04-20T07:20:35.039Z,67.29
2023-04-20T07:23:07.466Z,67.36
2023-04-20T07:25:39.972Z,67.43
2023-04-20T07:28:12.578Z,67.34
2023-04-20T07:30:45.087Z,67.36
2023-04-20T07:33:17.665Z,67.25
2023-04-20T07:35:49.890Z,67.24
2023-04-20T07:38:22.243Z,67.19
2023-04-20T07:40:54.705Z,67.03
2023-04-20T07:43:27.058Z,67.01
2023-04-20T07:45:59.404Z,66.82
2023-04-20T07:48:32.028Z,66.74
2023-04-20T07:51:04.347Z,66.54
2023-04-20T07:53:36.670Z,66.46
2023-04-20T07:56:09.527Z,66.42
2023-04-20T07:58:41.772Z,66.27
2023-04-20T08:01:14.097Z,65.94
2023-04-20T08:03:46.704Z,65.81
2023-04-20T08:06:19.128Z,65.85
2023-04-20T08:08:51.519Z,65.63
2023-04-20T08:11:25.336Z,65.61
2023-04-20T08:13:58.517Z,65.65
2023-04-20T08:16:30.988Z,65.21
2023-04-20T08:19:10.076Z,65.28
2023-04-20T08:21:43.082Z,65.31
2023-04-20T08:24:15.769Z,65.19
2023-04-20T08:26:48.152Z,65.17
2023-04-20T08:29:21.066Z,65.16
2023-04-20T08:31:53.333Z,64.70
2023-04-20T08:34:25.734Z,64.66
2023-04-20T08:36:58.207Z,64.38
2023-04-20T08:39:30.590Z,64.23
2023-04-20T08:42:03.418Z,64.00
2023-04-20T08:44:35.652Z,63.74
2023-04-20T08:47:10.109Z,63.71
2023-04-20T08:49:43.002Z,63.46
2023-04-20T08:52:15.641Z,63.45
2023-04-20T08:54:55.827Z,63.40
2023-04-20T08:57:28.850Z,63.41
2023-04-20T09:00:01.152Z,63.25
2023-04-20T09:02:33.555Z,62.92
2023-04-20T09:05:07.090Z,62.54
2023-04-20T09:07:39.427Z,62.61
2023-04-20T09:10:12.465Z,62.33
2023-04-20T09:12:45.459Z,62.18
2023-04-20T09:15:29.316Z,61.91
2023-04-20T09:18:12.089Z,61.88
2023-04-20T09:20:44.640Z,61.39
2023-04-20T09:23:18.892Z,61.33
2023-04-20T09:25:54.048Z,61.11
2023-04-20T09:28:36.379Z,60.98
2023-04-20T09:31:18.494Z,60.83
2023-04-20T09:34:00.781Z,60.63
2023-04-20T09:36:41.948Z,60.65
2023-04-20T09:39:16.730Z,60.09
2023-04-20T09:41:50.192Z,60.05
2023-04-20T09:44:22.529Z,59.63
2023-04-20T09:46:55.475Z,59.52
2023-04-20T09:49:28.709Z,59.36
2023-04-20T09:52:02.975Z,58.86
2023-04-20T09:54:38.234Z,58.61
2023-04-20T09:57:10.840Z,57.87
2023-04-20T09:59:47.736Z,57.00
2023-04-20T10:02:20.408Z,57.47
2023-04-20T10:04:57.342Z,57.29
2023-04-20T10:07:31.975Z,57.10
2023-04-20T10:10:10.941Z,56.18
2023-04-20T10:12:54.290Z,56.58
2023-04-20T10:15:37.437Z,56.41
2023-04-20T10:18:20.440Z,55.90
2023-04-20T10:20:53.629Z,55.64
2023-04-20T10:23:26.109Z,55.20
2023-04-20T10:26:03.858Z,55.20
2023-04-20T10:28:44.980Z,54.91
2023-04-20T10:31:17.604Z,54.75
2023-04-20T10:33:55.165Z,54.42
2023-04-20T10:36:31.345Z,54.49
2023-04-20T10:39:14.721Z,54.10
2023-04-20T10:41:59.474Z,53.79
2023-04-20T10:44:33.210Z,52.66
2023-04-20T10:47:05.744Z,52.74
2023-04-20T10:49:38.199Z,52.69
2023-04-20T10:52:10.951Z,52.57
2023-04-20T10:54:43.380Z,52.12
2023-04-20T10:57:19.875Z,51.20
2023-04-20T10:59:52.111Z,51.42
2023-04-20T11:02:24.605Z,50.94
2023-04-20T11:05:01.200Z,50.82
2023-04-20T11:07:33.606Z,50.81
2023-04-20T11:10:07.145Z,50.39
2023-04-20T11:12:42.344Z,48.40
2023-04-20T11:15:14.875Z,49.11
2023-04-20T11:17:47.279Z,48.75
2023-04-20T11:20:19.658Z,49.16
2023-04-20T11:22:59.865Z,48.32
2023-04-20T11:25:32.292Z,48.46
2023-04-20T11:28:10.008Z,48.16
2023-04-20T11:30:43.303Z,47.84
2023-04-20T11:33:17.573Z,47.80
2023-04-20T11:35:50.390Z,47.65
2023-04-20T11:38:31.580Z,47.37
2023-04-20T11:41:07.909Z,47.19
2023-04-20T11:43:40.420Z,47.26
2023-04-20T11:46:18.414Z,46.60
2023-04-20T11:48:50.903Z,46.10
2023-04-20T11:51:23.133Z,44.97
2023-04-20T11:53:55.576Z,46.18
2023-04-20T11:56:28.660Z,46.20
2023-04-20T11:59:00.999Z,46.17
2023-04-20T12:01:34.061Z,46.14
2023-04-20T12:04:07.146Z,46.08
2023-04-20T12:06:39.813Z,45.69
2023-04-20T12:09:13.569Z,45.80
2023-04-20T12:11:46.077Z,45.35
2023-04-20T12:14:18.366Z,44.49
2023-04-20T12:16:50.661Z,44.90
2023-04-20T12:19:22.936Z,44.61
2023-04-20T12:21:55.582Z,44.86
2023-04-20T12:24:28.000Z,44.33
2023-04-20T12:27:00.445Z,44.01
2023-04-20T12:29:33.290Z,43.52
2023-04-20T12:32:05.764Z,44.09
2023-04-20T12:34:38.043Z,44.24
2023-04-20T12:37:10.548Z,44.17
2023-04-20T12:39:42.966Z,43.89
2023-04-20T12:42:15.373Z,43.49
2023-04-20T12:44:47.714Z,43.76
2023-04-20T12:47:20.052Z,43.35
2023-04-20T12:49:52.305Z,43.48
2023-04-20T12:52:24.657Z,43.25
2023-04-20T12:54:57.040Z,43.30
2023-04-20T12:57:29.385Z,43.19
2023-04-20T13:00:02.923Z,43.26
2023-04-20T13:02:35.641Z,43.12
2023-04-20T13:05:09.033Z,43.19
2023-04-20T13:07:41.505Z,42.86
2023-04-20T13:10:14.001Z,42.50
2023-04-20T13:12:46.327Z,42.69
2023-04-20T13:15:31.953Z,42.51
2023-04-20T13:18:11.377Z,42.55
2023-04-20T13:20:44.027Z,41.56
2023-04-20T13:23:16.532Z,41.82
2023-04-20T13:25:48.878Z,42.02
2023-04-20T13:28:21.306Z,41.85
2023-04-20T13:30:54.164Z,41.87
2023-04-20T13:33:27.048Z,41.80
2023-04-20T13:35:59.361Z,41.82
2023-04-20T13:38:31.915Z,41.74
2023-04-20T13:41:04.297Z,41.69
2023-04-20T13:43:36.676Z,41.61
2023-04-20T13:46:09.028Z,41.60
2023-04-20T13:48:41.485Z,41.66
2023-04-20T13:51:14.031Z,41.51
2023-04-20T13:53:48.149Z,41.49
2023-04-20T13:56:21.140Z,41.56
2023-04-20T13:58:53.579Z,41.45
2023-04-20T14:01:26.537Z,41.43
2023-04-20T14:03:59.215Z,41.22
2023-04-20T14:06:32.120Z,41.12
2023-04-20T14:09:04.481Z,41.00
2023-04-20T14:11:36.810Z,41.04
2023-04-20T14:14:09.387Z,40.95
2023-04-20T14:16:47.112Z,41.00
2023-04-20T14:19:19.700Z,41.03
2023-04-20T14:21:51.997Z,41.00
2023-04-20T14:24:24.277Z,40.94
2023-04-20T14:26:57.151Z,40.72
2023-04-20T14:29:29.442Z,40.78
2023-04-20T14:32:01.829Z,40.68
2023-04-20T14:34:34.481Z,40.49
2023-04-20T14:37:06.893Z,40.56
2023-04-20T14:39:39.325Z,40.22
2023-04-20T14:42:12.603Z,40.27
2023-04-20T14:44:44.960Z,40.13
2023-04-20T14:47:17.333Z,40.18
2023-04-20T14:49:50.355Z,40.16
2023-04-20T14:52:23.012Z,40.10
2023-04-20T14:54:55.668Z,40.13
2023-04-20T14:57:28.006Z,40.06
2023-04-20T15:00:00.351Z,40.01
2023-04-20T15:02:32.885Z,40.00
2023-04-20T15:05:09.445Z,40.03
2023-04-20T15:07:45.746Z,39.98
2023-04-20T15:10:18.429Z,39.95
2023-04-20T15:12:51.182Z,39.96
2023-04-20T15:15:23.549Z,39.93
2023-04-20T15:17:56.040Z,39.89
2023-04-20T15:20:28.554Z,39.83
2023-04-20T15:23:01.040Z,39.84
2023-04-20T15:25:33.589Z,39.79
2023-04-20T15:28:06.040Z,39.70
2023-04-20T15:30:38.628Z,39.75
2023-04-20T15:33:11.471Z,39.80
2023-04-20T15:35:44.240Z,39.82
2023-04-20T15:38:16.553Z,39.82
2023-04-20T15:40:48.933Z,39.72
2023-04-20T15:43:21.354Z,39.65
2023-04-20T15:45:53.729Z,39.55
2023-04-20T15:48:26.072Z,39.64
2023-04-20T15:50:58.358Z,39.63
2023-04-20T15:53:30.701Z,39.39
2023-04-20T15:56:03.033Z,39.54
2023-04-20T15:58:35.777Z,39.59
2023-04-20T16:01:08.418Z,39.51
2023-04-20T16:03:41.929Z,39.58
2023-04-20T16:06:16.612Z,39.48
2023-04-20T16:08:50.792Z,39.44
2023-04-20T16:11:23.302Z,39.39
2023-04-20T16:13:56.196Z,39.39
2023-04-20T16:16:28.673Z,39.25
2023-04-20T16:19:01.020Z,39.21
2023-04-20T16:21:33.348Z,39.14
2023-04-20T16:24:05.810Z,39.13
2023-04-20T16:26:39.511Z,39.09
2023-04-20T16:29:13.190Z,38.97
2023-04-20T16:31:45.678Z,39.10
2023-04-20T16:34:18.307Z,39.10
2023-04-20T16:36:50.884Z,39.17
2023-04-20T16:39:23.209Z,39.06
2023-04-20T16:41:55.569Z,38.97
2023-04-20T16:44:28.311Z,39.14
2023-04-20T16:47:02.218Z,39.24
2023-04-20T16:49:34.588Z,39.19
2023-04-20T16:52:06.917Z,39.21
2023-04-20T16:54:39.280Z,39.30
2023-04-20T16:57:11.728Z,39.21
2023-04-20T16:59:45.292Z,39.28
2023-04-20T17:02:18.282Z,39.34
2023-04-20T17:04:50.691Z,39.31
2023-04-20T17:07:22.987Z,39.36
2023-04-20T17:09:55.424Z,39.39
2023-04-20T17:12:28.103Z,39.46
2023-04-20T17:15:00.867Z,39.61
2023-04-20T17:17:34.214Z,39.65
2023-04-20T17:20:08.183Z,39.76
2023-04-20T17:22:40.417Z,39.80
2023-04-20T17:25:14.211Z,39.83
2023-04-20T17:27:46.778Z,39.89
2023-04-20T17:30:19.218Z,39.92
2023-04-20T17:32:51.776Z,40.01
2023-04-20T17:35:24.539Z,40.15
2023-04-20T17:37:56.849Z,40.23
2023-04-20T17:40:29.188Z,40.21
2023-04-20T17:43:01.710Z,40.31
2023-04-20T17:45:34.110Z,40.41
2023-04-20T17:48:07.027Z,40.55
2023-04-20T17:50:39.589Z,40.57
2023-04-20T17:53:11.884Z,40.64
2023-04-20T17:55:44.219Z,40.76
2023-04-20T17:58:17.159Z,40.87
2023-04-20T18:00:49.584Z,40.97
2023-04-20T18:03:22.091Z,41.04
2023-04-20T18:05:54.713Z,41.03
2023-04-20T18:08:27.076Z,41.13
2023-04-20T18:10:59.324Z,41.23
2023-04-20T18:13:31.647Z,41.42
2023-04-20T18:16:07.403Z,41.49
2023-04-20T18:18:39.749Z,41.53
2023-04-20T18:21:14.292Z,41.54
2023-04-20T18:23:46.696Z,41.76
2023-04-20T18:26:20.518Z,41.85
2023-04-20T18:28:52.804Z,41.89
2023-04-20T18:31:25.312Z,41.99
2023-04-20T18:33:57.708Z,42.02
2023-04-20T18:36:30.431Z,42.07
2023-04-20T18:39:02.752Z,42.24
2023-04-20T18:41:35.106Z,42.14
2023-04-20T18:44:08.091Z,42.33
2023-04-20T18:46:42.249Z,42.41
2023-04-20T18:49:14.811Z,42.42
2023-04-20T18:51:47.498Z,42.46
2023-04-20T18:54:20.073Z,42.54
2023-04-20T18:56:54.816Z,42.59
2023-04-20T18:59:27.185Z,42.57
2023-04-20T19:01:59.627Z,42.63
2023-04-20T19:04:33.009Z,42.63
2023-04-20T19:07:05.353Z,42.75
2023-04-20T19:09:37.604Z,42.74
2023-04-20T19:12:10.042Z,42.74
2023-04-20T19:14:43.074Z,42.91
2023-04-20T19:17:15.771Z,43.03
2023-04-20T19:19:51.052Z,43.04
2023-04-20T19:22:23.372Z,43.07
2023-04-20T19:24:55.777Z,43.21
2023-04-20T19:27:30.776Z,43.28
2023-04-20T19:30:03.816Z,43.40
2023-04-20T19:32:36.232Z,43.42
2023-04-20T19:35:08.968Z,43.39
2023-04-20T19:37:42.031Z,43.46
2023-04-20T19:40:14.823Z,43.45
2023-04-20T19:42:48.728Z,43.42
2023-04-20T19:45:21.164Z,43.46
2023-04-20T19:47:53.535Z,43.53
2023-04-20T19:50:25.987Z,43.57
2023-04-20T19:52:58.805Z,43.59
2023-04-20T19:55:31.184Z,43.59
2023-04-20T19:58:09.125Z,43.68
2023-04-20T20:00:41.694Z,43.67
2023-04-20T20:03:16.200Z,43.79
2023-04-20T20:05:48.806Z,43.82
2023-04-20T20:08:21.433Z,43.87
2023-04-20T20:10:53.886Z,43.92
2023-04-20T20:13:26.395Z,43.99
2023-04-20T20:16:00.553Z,43.99
2023-04-20T20:18:32.848Z,43.94
2023-04-20T20:21:05.368Z,44.11
2023-04-20T20:23:37.981Z,44.10
2023-04-20T20:26:10.463Z,44.03
2023-04-20T20:28:42.830Z,44.16
2023-04-20T20:31:15.240Z,44.19
2023-04-20T20:33:50.484Z,44.22
2023-04-20T20:36:22.940Z,44.30
2023-04-20T20:38:56.116Z,44.32
2023-04-20T20:41:30.630Z,44.37
2023-04-20T20:44:03.124Z,44.47
2023-04-20T20:46:35.283Z,44.41
2023-04-20T20:49:07.763Z,44.60
2023-04-20T20:51:40.235Z,44.56
2023-04-20T20:54:12.867Z,44.63
2023-04-20T20:56:45.258Z,44.66
2023-04-20T20:59:17.772Z,44.73
2023-04-20T21:01:50.464Z,44.72
2023-04-20T21:04:23.179Z,44.74
2023-04-20T21:06:55.696Z,44.79
2023-04-20T21:09:28.056Z,44.85
2023-04-20T21:12:01.109Z,44.84
2023-04-20T21:14:33.753Z,44.75
2023-04-20T21:17:06.177Z,44.87
2023-04-20T21:19:38.532Z,44.96
2023-04-20T21:22:10.857Z,44.93
2023-04-20T21:24:43.227Z,44.95
2023-04-20T21:27:15.674Z,44.93
2023-04-20T21:29:48.112Z,44.98
2023-04-20T21:32:20.644Z,45.05
2023-04-20T21:34:53.166Z,44.99
2023-04-20T21:37:25.555Z,45.09
2023-04-20T21:39:57.840Z,45.14
2023-04-20T21:42:30.711Z,45.12
2023-04-20T21:45:07.198Z,45.13
2023-04-20T21:47:39.632Z,45.08
2023-04-20T21:50:13.181Z,45.13
2023-04-20T21:52:45.548Z,45.24
2023-04-20T21:55:17.856Z,45.30
2023-04-20T21:57:50.301Z,45.20
2023-04-20T22:00:23.440Z,45.23
2023-04-20T22:02:56.028Z,45.33
2023-04-20T22:05:29.508Z,45.33
2023-04-20T22:08:01.846Z,45.32
2023-04-20T22:10:34.846Z,45.42
2023-04-20T22:13:07.305Z,45.43
2023-04-20T22:15:40.055Z,45.48
2023-04-20T22:18:13.062Z,45.45
2023-04-20T22:20:45.666Z,45.47
2023-04-20T22:23:18.404Z,45.51
2023-04-20T22:25:50.715Z,45.48
2023-04-20T22:28:23.055Z,45.44
2023-04-20T22:30:55.920Z,45.60
2023-04-20T22:33:28.295Z,45.53
2023-04-20T22:36:00.830Z,45.59
2023-04-20T22:38:35.745Z,45.66
2023-04-20T22:41:06.549Z,45.62
2023-04-20T22:43:38.852Z,45.59
2023-04-20T22:46:11.346Z,45.71
2023-04-20T22:48:47.905Z,45.68
2023-04-20T22:51:20.781Z,45.62
2023-04-20T22:53:53.183Z,45.76
2023-04-20T22:56:25.771Z,45.82
2023-04-20T22:58:58.086Z,45.87
2023-04-20T23:01:30.634Z,45.86
2023-04-20T23:04:03.370Z,45.97
2023-04-20T23:06:36.462Z,46.05
2023-04-20T23:09:08.883Z,46.12
2023-04-20T23:11:41.501Z,46.17
2023-04-20T23:14:14.221Z,46.27
2023-04-20T23:16:46.649Z,46.25
2023-04-20T23:19:19.118Z,46.25
2023-04-20T23:21:51.584Z,46.33
2023-04-20T23:24:24.026Z,46.39
2023-04-20T23:26:56.886Z,46.29
2023-04-20T23:29:29.167Z,46.35
2023-04-20T23:32:01.744Z,46.45
2023-04-20T23:34:34.352Z,46.51
2023-04-20T23:37:06.621Z,46.56
2023-04-20T23:39:40.582Z,46.55
2023-04-20T23:42:12.986Z,46.53
2023-04-20T23:44:45.455Z,46.70
2023-04-20T23:47:17.780Z,46.70
2023-04-20T23:49:50.094Z,46.75
2023-04-20T23:52:22.410Z,46.90
2023-04-20T23:54:54.726Z,46.69
2023-04-20T23:57:27.169Z,46.93
2023-04-20T23:59:59.659Z,46.92
